Home > Products > Valid Products > TAF

000
FTUS46 KOTX 220520
TAFCOE
TAF
KCOE 220520Z 2206/2306 09005KT P6SM FEW200
     FM220700 08005KT P6SM SCT080 BKN100
     FM221000 09005KT P6SM BKN050 OVC080
     FM221600 19006KT P6SM VCSH SCT040 BKN060 OVC080
     FM222100 04005KT P6SM -SHRA VCTS BKN040 BKN060CB
     FM230300 02005KT P6SM VCSH SCT050 BKN100
      AMD LTD TO CLD VIS AND WIND=



000
FTUS46 KOTX 220520
TAFPUW
TAF
KPUW 220520Z 2206/2306 VRB03KT P6SM SCT080 BKN100
     FM221300 VRB03KT P6SM -SHRA SCT040 BKN060 OVC080
     FM222000 27007KT P6SM -SHRA VCTS SCT030 BKN050CB=



000
FTUS46 KOTX 220520
TAFGEG
TAF
KGEG 220520Z 2206/2306 10005KT P6SM BKN120 BKN200
     FM221000 11005KT P6SM SCT060 BKN080 OVC100
     FM221600 12006KT P6SM VCSH SCT040 BKN060 OVC080
     FM230200 01004KT P6SM SCT050 SCT100=



000
FTUS46 KOTX 220520
TAFMWH
TAF
KMWH 220520Z 2206/2306 04004KT P6SM SCT080 BKN120
     FM221200 01004KT P6SM SCT060 BKN080 OVC100
     FM221900 22008KT P6SM SCT050 OVC080
     FM230200 13004KT P6SM SCT060 BKN100=



000
FTUS46 KOTX 220520
TAFCOE
TAF
KCOE 220520Z 2206/2306 09005KT P6SM FEW200
     FM220700 08005KT P6SM SCT080 BKN100
     FM221000 09005KT P6SM BKN050 OVC080
     FM221600 19006KT P6SM VCSH SCT040 BKN060 OVC080
     FM222100 04005KT P6SM -SHRA VCTS BKN040 BKN060CB
     FM230300 02005KT P6SM VCSH SCT050 BKN100
      AMD LTD TO CLD VIS AND WIND=



000
FTUS46 KOTX 220520
TAFPUW
TAF
KPUW 220520Z 2206/2306 VRB03KT P6SM SCT080 BKN100
     FM221300 VRB03KT P6SM -SHRA SCT040 BKN060 OVC080
     FM222000 27007KT P6SM -SHRA VCTS SCT030 BKN050CB=



000
FTUS46 KOTX 220520
TAFMWH
TAF
KMWH 220520Z 2206/2306 04004KT P6SM SCT080 BKN120
     FM221200 01004KT P6SM SCT060 BKN080 OVC100
     FM221900 22008KT P6SM SCT050 OVC080
     FM230200 13004KT P6SM SCT060 BKN100=



000
FTUS46 KOTX 220520
TAFSFF
TAF
KSFF 220520Z 2206/2306 03003KT P6SM BKN120 BKN200
     FM221000 07005KT P6SM SCT050 BKN080 OVC100
     FM221600 08004KT P6SM VCSH SCT040 BKN060 OVC080
     FM230200 03003KT P6SM SCT050 SCT100=



000
FTUS46 KOTX 220520
TAFLWS
TAF
KLWS 220520Z 2206/2306 VRB03KT P6SM SCT080 OVC100
     FM221100 11004KT P6SM VCSH SCT040 OVC080
     FM221800 01006KT P6SM -SHRA VCTS SCT040 BKN070CB
     FM230300 32006KT P6SM VCSH SCT070 BKN120=



000
FTUS46 KOTX 220520
TAFGEG
TAF
KGEG 220520Z 2206/2306 10005KT P6SM BKN120 BKN200
     FM221000 11005KT P6SM SCT060 BKN080 OVC100
     FM221600 12006KT P6SM VCSH SCT040 BKN060 OVC080
     FM230200 01004KT P6SM SCT050 SCT100=



000
FTUS46 KOTX 220520
TAFEAT
TAF
KEAT 220520Z 2206/2306 11010KT P6SM FEW120
     FM220900 31006KT P6SM VCSH SCT080 BKN100
     FM221200 29006KT P6SM -SHRA SCT050 BKN080 OVC100
     FM221900 13004KT P6SM -SHRA VCTS SCT040 BKN060CB OVC100
     FM230200 33005KT P6SM FEW050 SCT080 BKN150=



000
FTUS46 KOTX 212320
TAFLWS
TAF
KLWS 212320Z 2200/2224 34004KT P6SM SKC
     FM220600 VRB03KT P6SM SCT080 OVC100
     FM221100 11004KT P6SM VCSH SCT040 OVC080
     FM221800 35006KT P6SM -SHRA VCTS SCT040 BKN070CB=



000
FTUS46 KOTX 212320
TAFEAT
TAF
KEAT 212320Z 2200/2224 12010KT P6SM SKC
     FM220500 31010KT P6SM FEW100
     FM221000 31006KT P6SM SCT060 BKN080 BKN100
     FM221900 13004KT P6SM -SHRA VCTS SCT040 BKN060CB OVC100=



000
FTUS46 KOTX 212320
TAFPUW
TAF
KPUW 212320Z 2200/2224 30004KT P6SM FEW200
     FM220400 34003KT P6SM SCT100 BKN150
     FM220600 VRB03KT P6SM BKN070 OVC100
     FM221300 VRB03KT P6SM VCSH SCT040 BKN060 OVC080
     FM221900 27007KT P6SM -SHRA VCTS SCT030 BKN050CB=



000
FTUS46 KOTX 212320
TAFSFF
TAF
KSFF 212320Z 2200/2224 20005KT P6SM FEW050 SCT200
     FM220300 05005KT P6SM SCT200
     FM220600 03003KT P6SM BKN120 BKN200
     FM221000 07005KT P6SM SCT050 BKN080 OVC100
     FM222000 18004KT P6SM VCSH SCT040 BKN060 OVC080=



000
FTUS46 KOTX 212320
TAFCOE
TAF
KCOE 212320Z 2200/2224 26006KT P6SM SCT200
     FM220500 09005KT P6SM FEW200
     FM220700 10005KT P6SM SCT080 BKN100
     FM221000 09005KT P6SM BKN050 OVC080
     FM221400 07006KT P6SM VCSH SCT040 BKN060 OVC080
     FM222100 30005KT P6SM -SHRA VCTS BKN040 BKN060CB
      AMD LTD TO CLD VIS AND WIND=



000
FTUS46 KOTX 212320
TAFGEG
TAF
KGEG 212320Z 2200/2224 23008KT P6SM FEW040 SCT200
     FM220300 19005KT P6SM SCT200
     FM220600 18005KT P6SM BKN120 BKN200
     FM221000 11005KT P6SM SCT050 BKN080 OVC100
     FM222000 22007KT P6SM VCSH SCT040 BKN060 OVC080=



000
FTUS46 KOTX 212320
TAFPUW
TAF
KPUW 212320Z 2200/2224 30004KT P6SM FEW200
     FM220400 34003KT P6SM SCT100 BKN150
     FM220600 VRB03KT P6SM BKN070 OVC100
     FM221300 VRB03KT P6SM VCSH SCT040 BKN060 OVC080
     FM221900 27007KT P6SM -SHRA VCTS SCT030 BKN050CB=



000
FTUS46 KOTX 212320
TAFMWH
TAF
KMWH 212320Z 2200/2224 18007KT P6SM SCT200
     FM220600 21005KT P6SM SCT080 BKN100
     FM221200 01006KT P6SM SCT060 BKN080 OVC100
     FM221900 22008KT P6SM SCT050 OVC080=



000
FTUS46 KOTX 212320
TAFCOE
TAF
KCOE 212320Z 2200/2224 26006KT P6SM SCT200
     FM220500 09005KT P6SM FEW200
     FM220700 10005KT P6SM SCT080 BKN100
     FM221000 09005KT P6SM BKN050 OVC080
     FM221400 07006KT P6SM VCSH SCT040 BKN060 OVC080
     FM222100 30005KT P6SM -SHRA VCTS BKN040 BKN060CB
      AMD LTD TO CLD VIS AND WIND=



000
FTUS46 KOTX 212320
TAFGEG
TAF
KGEG 212320Z 2200/2224 23008KT P6SM FEW040 SCT200
     FM220300 19005KT P6SM SCT200
     FM220600 18005KT P6SM BKN120 BKN200
     FM221000 11005KT P6SM SCT050 BKN080 OVC100
     FM222000 22007KT P6SM VCSH SCT040 BKN060 OVC080=



000
FTUS46 KOTX 212320
TAFSFF
TAF
KSFF 212320Z 2200/2224 20005KT P6SM FEW050 SCT200
     FM220300 05005KT P6SM SCT200
     FM220600 03003KT P6SM BKN120 BKN200
     FM221000 07005KT P6SM SCT050 BKN080 OVC100
     FM222000 18004KT P6SM VCSH SCT040 BKN060 OVC080=



000
FTUS46 KOTX 212320
TAFEAT
TAF
KEAT 212320Z 2200/2224 12010KT P6SM SKC
     FM220500 31010KT P6SM FEW100
     FM221000 31006KT P6SM SCT060 BKN080 BKN100
     FM221900 13004KT P6SM -SHRA VCTS SCT040 BKN060CB OVC100=



000
FTUS46 KOTX 212320
TAFLWS
TAF
KLWS 212320Z 2200/2224 34004KT P6SM SKC
     FM220600 VRB03KT P6SM SCT080 OVC100
     FM221100 11004KT P6SM VCSH SCT040 OVC080
     FM221800 35006KT P6SM -SHRA VCTS SCT040 BKN070CB=



000
FTUS46 KOTX 212320
TAFMWH
TAF
KMWH 212320Z 2200/2224 18007KT P6SM SCT200
     FM220600 21005KT P6SM SCT080 BKN100
     FM221200 01006KT P6SM SCT060 BKN080 OVC100
     FM221900 22008KT P6SM SCT050 OVC080=



000
FTUS46 KOTX 211739
TAFGEG
TAF
KGEG 211739Z 2118/2218 20012G17KT P6SM FEW040
     FM220300 19005KT P6SM FEW200
     FM220600 10005KT P6SM BKN120 BKN200
     FM220800 14007KT P6SM BKN050 OVC080=



000
FTUS46 KOTX 211739
TAFSFF
TAF
KSFF 211739Z 2118/2218 20010KT P6SM SKC
     FM220300 20005KT P6SM SKC
     FM220600 04003KT P6SM SCT050 BKN080
     FM221200 13005KT P6SM BKN060 OVC080=



000
FTUS46 KOTX 211739
TAFCOE
TAF
KCOE 211739Z 2118/2218 23008KT P6SM SCT040
     FM212000 26006KT P6SM SCT200
     FM220500 09005KT P6SM FEW200
     FM220700 10005KT P6SM SCT080 BKN100
     FM221000 09005KT P6SM BKN050 OVC080
      AMD LTD TO CLD VIS AND WIND=



000
FTUS46 KOTX 211739
TAFEAT
TAF
KEAT 211739Z 2118/2218 32007KT P6SM SKC
     FM212000 14004KT P6SM SKC
     FM220500 31010KT P6SM FEW100=



000
FTUS46 KOTX 211739
TAFMWH
TAF
KMWH 211739Z 2118/2218 20007KT P6SM FEW200
     FM220600 18005KT P6SM SCT080 BKN100=



000
FTUS46 KOTX 211739
TAFPUW
TAF
KPUW 211739Z 2118/2218 25010KT P6SM FEW200
     FM212200 30004KT P6SM FEW200
     FM220400 34003KT P6SM SCT100 BKN150
     FM220600 VRB03KT P6SM BKN070 OVC100=



000
FTUS46 KOTX 211739
TAFLWS
TAF
KLWS 211739Z 2118/2218 34004KT P6SM SKC
     FM220600 VRB03KT P6SM SCT080 OVC100
     FM221100 11004KT P6SM VCSH SCT030 OVC080=



000
FTUS46 KOTX 211739
TAFEAT
TAF
KEAT 211739Z 2118/2218 32007KT P6SM SKC
     FM212000 14004KT P6SM SKC
     FM220500 31010KT P6SM FEW100=



000
FTUS46 KOTX 211739
TAFCOE
TAF
KCOE 211739Z 2118/2218 23008KT P6SM SCT040
     FM212000 26006KT P6SM SCT200
     FM220500 09005KT P6SM FEW200
     FM220700 10005KT P6SM SCT080 BKN100
     FM221000 09005KT P6SM BKN050 OVC080
      AMD LTD TO CLD VIS AND WIND=



000
FTUS46 KOTX 211739
TAFMWH
TAF
KMWH 211739Z 2118/2218 20007KT P6SM FEW200
     FM220600 18005KT P6SM SCT080 BKN100=



000
FTUS46 KOTX 211739
TAFSFF
TAF
KSFF 211739Z 2118/2218 20010KT P6SM SKC
     FM220300 20005KT P6SM SKC
     FM220600 04003KT P6SM SCT050 BKN080
     FM221200 13005KT P6SM BKN060 OVC080=



000
FTUS46 KOTX 211739
TAFLWS
TAF
KLWS 211739Z 2118/2218 34004KT P6SM SKC
     FM220600 VRB03KT P6SM SCT080 OVC100
     FM221100 11004KT P6SM VCSH SCT030 OVC080=



000
FTUS46 KOTX 211739
TAFGEG
TAF
KGEG 211739Z 2118/2218 20012G17KT P6SM FEW040
     FM220300 19005KT P6SM FEW200
     FM220600 10005KT P6SM BKN120 BKN200
     FM220800 14007KT P6SM BKN050 OVC080=



000
FTUS46 KOTX 211739
TAFPUW
TAF
KPUW 211739Z 2118/2218 25010KT P6SM FEW200
     FM212200 30004KT P6SM FEW200
     FM220400 34003KT P6SM SCT100 BKN150
     FM220600 VRB03KT P6SM BKN070 OVC100=



000
FTUS46 KOTX 211120
TAFGEG
TAF
KGEG 211120Z 2112/2212 20010KT P6SM SCT120 BKN150
     FM220300 18005KT P6SM FEW200
     FM220600 09005KT P6SM BKN120 BKN200=



000
FTUS46 KOTX 211120
TAFSFF
TAF
KSFF 211120Z 2112/2212 24007KT P6SM SCT120 BKN150
     FM211700 22005KT P6SM SCT120
     FM220200 VRB03KT P6SM FEW200
     FM220600 04003KT P6SM BKN120 BKN200=



000
FTUS46 KOTX 211120
TAFGEG
TAF
KGEG 211120Z 2112/2212 20010KT P6SM SCT120 BKN150
     FM220300 18005KT P6SM FEW200
     FM220600 09005KT P6SM BKN120 BKN200=



000
FTUS46 KOTX 211120
TAFEAT
TAF
KEAT 211120Z 2112/2212 31015KT P6SM SCT200
     FM212000 14004KT P6SM SKC
     FM220300 33008KT P6SM FEW150=



000
FTUS46 KOTX 211120
TAFLWS
TAF
KLWS 211120Z 2112/2212 26007KT P6SM SCT120 BKN150
     FM211400 33005KT P6SM SCT200
     FM220600 11004KT P6SM BKN120 BKN200=



000
FTUS46 KOTX 211120
TAFMWH
TAF
KMWH 211120Z 2112/2212 24008KT P6SM FEW200
     FM211200 23004KT P6SM SKC
     FM211800 19008KT P6SM FEW200
     FM220600 18005KT P6SM BKN120 BKN200=



000
FTUS46 KOTX 211120
TAFSFF
TAF
KSFF 211120Z 2112/2212 24007KT P6SM SCT120 BKN150
     FM211700 22005KT P6SM SCT120
     FM220200 VRB03KT P6SM FEW200
     FM220600 04003KT P6SM BKN120 BKN200=



000
FTUS46 KOTX 211120
TAFCOE
TAF
KCOE 211120Z 2112/2212 18005KT P6SM BKN150
     FM212000 26006KT P6SM SCT200
     FM220300 09004KT P6SM FEW200
     FM220600 05005KT P6SM BKN120 BKN200
      AMD LTD TO CLD VIS AND WIND=



000
FTUS46 KOTX 211120
TAFPUW
TAF
KPUW 211120Z 2112/2212 24012KT P6SM SCT080 BKN120
     FM211600 27008KT P6SM SCT150
     FM220300 VRB03KT P6SM SCT200
     FM220600 08003KT P6SM BKN120 BKN200=



000
FTUS46 KOTX 211120
TAFCOE
TAF
KCOE 211120Z 2112/2212 18005KT P6SM BKN150
     FM212000 26006KT P6SM SCT200
     FM220300 09004KT P6SM FEW200
     FM220600 05005KT P6SM BKN120 BKN200
      AMD LTD TO CLD VIS AND WIND=



000
FTUS46 KOTX 211120
TAFLWS
TAF
KLWS 211120Z 2112/2212 26007KT P6SM SCT120 BKN150
     FM211400 33005KT P6SM SCT200
     FM220600 11004KT P6SM BKN120 BKN200=



000
FTUS46 KOTX 211120
TAFPUW
TAF
KPUW 211120Z 2112/2212 24012KT P6SM SCT080 BKN120
     FM211600 27008KT P6SM SCT150
     FM220300 VRB03KT P6SM SCT200
     FM220600 08003KT P6SM BKN120 BKN200=



000
FTUS46 KOTX 211120
TAFEAT
TAF
KEAT 211120Z 2112/2212 31015KT P6SM SCT200
     FM212000 14004KT P6SM SKC
     FM220300 33008KT P6SM FEW150=



000
FTUS46 KOTX 210520
TAFEAT
TAF
KEAT 210520Z 2106/2206 29017G25KT P6SM SCT200
     FM211000 31011KT P6SM SKC
     FM212000 14004KT P6SM SKC
     FM220300 33008KT P6SM FEW150=



000
FTUS46 KOTX 210520
TAFLWS
TAF
KLWS 210520Z 2106/2206 24005KT P6SM SCT120 BKN150
     FM211400 33005KT P6SM SCT200=



000
FTUS46 KOTX 210520
TAFPUW
TAF
KPUW 210520Z 2106/2206 24006KT P6SM SCT080 BKN120
     FM211600 27008KT P6SM SCT150
     FM220300 VRB03KT P6SM SCT200=



000
FTUS46 KOTX 210520
TAFSFF
TAF
KSFF 210520Z 2106/2206 24007KT P6SM SCT120 BKN150
     FM211700 22005KT P6SM SCT120
     FM220200 VRB03KT P6SM FEW200=



000
FTUS46 KOTX 210520
TAFEAT
TAF
KEAT 210520Z 2106/2206 29017G25KT P6SM SCT200
     FM211000 31011KT P6SM SKC
     FM212000 14004KT P6SM SKC
     FM220300 33008KT P6SM FEW150=



000
FTUS46 KOTX 210520
TAFMWH
TAF
KMWH 210520Z 2106/2206 24008KT P6SM FEW200
     FM211200 23004KT P6SM SKC
     FM211800 19008KT P6SM FEW200=



000
FTUS46 KOTX 210520
TAFGEG
TAF
KGEG 210520Z 2106/2206 20010KT P6SM SCT120 BKN150
     FM220300 18005KT P6SM FEW200=



000
FTUS46 KOTX 210520
TAFPUW
TAF
KPUW 210520Z 2106/2206 24006KT P6SM SCT080 BKN120
     FM211600 27008KT P6SM SCT150
     FM220300 VRB03KT P6SM SCT200=



000
FTUS46 KOTX 210520
TAFSFF
TAF
KSFF 210520Z 2106/2206 24007KT P6SM SCT120 BKN150
     FM211700 22005KT P6SM SCT120
     FM220200 VRB03KT P6SM FEW200=



000
FTUS46 KOTX 210520
TAFGEG
TAF
KGEG 210520Z 2106/2206 20010KT P6SM SCT120 BKN150
     FM220300 18005KT P6SM FEW200=



000
FTUS46 KOTX 210520
TAFCOE
TAF
KCOE 210520Z 2106/2206 18005KT P6SM BKN150
     FM212000 26006KT P6SM SCT200
     FM220300 09004KT P6SM FEW200
      AMD LTD TO CLD VIS AND WIND=



000
FTUS46 KOTX 210520
TAFLWS
TAF
KLWS 210520Z 2106/2206 24005KT P6SM SCT120 BKN150
     FM211400 33005KT P6SM SCT200=



000
FTUS46 KOTX 210520
TAFCOE
TAF
KCOE 210520Z 2106/2206 18005KT P6SM BKN150
     FM212000 26006KT P6SM SCT200
     FM220300 09004KT P6SM FEW200
      AMD LTD TO CLD VIS AND WIND=



000
FTUS46 KOTX 210520
TAFMWH
TAF
KMWH 210520Z 2106/2206 24008KT P6SM FEW200
     FM211200 23004KT P6SM SKC
     FM211800 19008KT P6SM FEW200=



000
FTUS46 KOTX 210416 AAA
TAFSFF
TAF AMD
KSFF 210416Z 2104/2124 24007KT P6SM SCT120 BKN180
     FM211700 22005KT P6SM SCT120=



000
FTUS46 KOTX 210416 AAA
TAFSFF
TAF AMD
KSFF 210416Z 2104/2124 24007KT P6SM SCT120 BKN180
     FM211700 22005KT P6SM SCT120=



000
FTUS46 KOTX 210334 AAA
TAFMWH
TAF AMD
KMWH 210334Z 2104/2124 24008KT P6SM FEW200
     FM211200 23004KT P6SM SKC
     FM211800 19007KT P6SM FEW200=



000
FTUS46 KOTX 210334 AAA
TAFMWH
TAF AMD
KMWH 210334Z 2104/2124 24008KT P6SM FEW200
     FM211200 23004KT P6SM SKC
     FM211800 19007KT P6SM FEW200=



000
FTUS46 KOTX 210332 AAA
TAFLWS
TAF AMD
KLWS 210332Z 2104/2124 24005KT P6SM SCT120 BKN150
     FM211400 02004KT P6SM SCT200=



000
FTUS46 KOTX 210331 AAA
TAFGEG
TAF AMD
KGEG 210331Z 2104/2124 24009KT 6SM FU SCT070 SCT100 BKN150
     FM210600 20010KT 6SM FU FEW120=



000
FTUS46 KOTX 210331 AAA
TAFGEG
TAF AMD
KGEG 210331Z 2104/2124 24009KT 6SM FU SCT070 SCT100 BKN150
     FM210600 20010KT 6SM FU FEW120=



000
FTUS46 KOTX 202320
TAFGEG
TAF
KGEG 202320Z 2100/2124 21012G20KT 6SM FU SCT070 SCT100 BKN150
     FM210600 20010KT 6SM FU FEW120=



000
FTUS46 KOTX 202320
TAFSFF
TAF
KSFF 202320Z 2100/2124 23011G16KT 6SM FU SCT070 SCT120 BKN180
     FM210600 22005KT P6SM SCT120=



000
FTUS46 KOTX 202320
TAFLWS
TAF
KLWS 202320Z 2100/2124 32012G18KT P6SM SCT100 BKN150
     FM210600 24005KT P6SM SCT120 BKN150
     FM211400 02004KT P6SM SCT200=



000
FTUS46 KOTX 202320
TAFEAT
TAF
KEAT 202320Z 2100/2124 30013G19KT P6SM SCT180
     FM210100 29017G25KT P6SM SCT200
     FM211000 31010KT P6SM SKC
     FM212000 14004KT P6SM SKC=



000
FTUS46 KOTX 202320
TAFMWH
TAF
KMWH 202320Z 2100/2124 21012G20KT P6SM SCT200
     FM210600 24008KT P6SM SKC
     FM211200 23004KT P6SM SKC
     FM211800 19007KT P6SM FEW200=



000
FTUS46 KOTX 202320
TAFCOE
TAF
KCOE 202320Z 2100/2124 23013G18KT P6SM SCT050 BKN080 BKN150
     FM210500 18005KT P6SM SCT150
     FM212000 26006KT P6SM SCT200
      AMD LTD TO CLD VIS AND WIND=



000
FTUS46 KOTX 202320
TAFSFF
TAF
KSFF 202320Z 2100/2124 23011G16KT 6SM FU SCT070 SCT120 BKN180
     FM210600 22005KT P6SM SCT120=



000
FTUS46 KOTX 202320
TAFLWS
TAF
KLWS 202320Z 2100/2124 32012G18KT P6SM SCT100 BKN150
     FM210600 24005KT P6SM SCT120 BKN150
     FM211400 02004KT P6SM SCT200=



000
FTUS46 KOTX 202320
TAFEAT
TAF
KEAT 202320Z 2100/2124 30013G19KT P6SM SCT180
     FM210100 29017G25KT P6SM SCT200
     FM211000 31010KT P6SM SKC
     FM212000 14004KT P6SM SKC=



000
FTUS46 KOTX 202320
TAFMWH
TAF
KMWH 202320Z 2100/2124 21012G20KT P6SM SCT200
     FM210600 24008KT P6SM SKC
     FM211200 23004KT P6SM SKC
     FM211800 19007KT P6SM FEW200=



000
FTUS46 KOTX 202320
TAFPUW
TAF
KPUW 202320Z 2100/2124 25012G18KT P6SM SCT050 BKN100 BKN150
     FM210400 24005KT P6SM SCT080 BKN120
     FM211200 27008KT P6SM SCT150=



000
FTUS46 KOTX 202320
TAFPUW
TAF
KPUW 202320Z 2100/2124 25012G18KT P6SM SCT050 BKN100 BKN150
     FM210400 24005KT P6SM SCT080 BKN120
     FM211200 27008KT P6SM SCT150=



000
FTUS46 KOTX 202320
TAFGEG
TAF
KGEG 202320Z 2100/2124 21012G20KT 6SM FU SCT070 SCT100 BKN150
     FM210600 20010KT 6SM FU FEW120=



000
FTUS46 KOTX 202320
TAFCOE
TAF
KCOE 202320Z 2100/2124 23013G18KT P6SM SCT050 BKN080 BKN150
     FM210500 18005KT P6SM SCT150
     FM212000 26006KT P6SM SCT200
      AMD LTD TO CLD VIS AND WIND=



000
FTUS46 KOTX 201740
TAFSFF
TAF
KSFF 201740Z 2018/2118 24010KT 6SM FU SCT050 BKN120
     FM202200 23011G16KT 6SM FU SCT070 BKN180
     FM210600 22004KT P6SM SCT120=



000
FTUS46 KOTX 201740
TAFCOE
TAF
KCOE 201740Z 2018/2118 22012KT P6SM SCT050 BKN060
     FM210100 23013G18KT P6SM SCT050 BKN150
     FM210800 18005KT P6SM SCT150
      AMD LTD TO CLD VIS AND WIND=



000
FTUS46 KOTX 201740
TAFLWS
TAF
KLWS 201740Z 2018/2118 30007KT P6SM SCT080
     FM202100 31012G18KT P6SM SCT080 BKN100
     FM202300 31012G18KT P6SM SCT150
     FM210600 22005KT P6SM SCT120 BKN150=



000
FTUS46 KOTX 201740
TAFEAT
TAF
KEAT 201740Z 2018/2118 30013G19KT P6SM SCT180
     FM210100 29017G25KT P6SM SCT200
     FM211200 31010KT P6SM SKC=



000
FTUS46 KOTX 201740
TAFGEG
TAF
KGEG 201740Z 2018/2118 24013G19KT 6SM FU SCT060 BKN110 BKN150
     FM202300 24012G20KT 6SM FU SCT070 BKN150
     FM210600 20009KT 6SM FU FEW120=



000
FTUS46 KOTX 201740
TAFMWH
TAF
KMWH 201740Z 2018/2118 25009KT P6SM SCT015
     FM202100 23012G20KT P6SM SCT200
     FM210600 27008KT P6SM SKC
     FM211200 25004KT P6SM SKC=



000
FTUS46 KOTX 201740
TAFPUW
TAF
KPUW 201740Z 2018/2118 23015G24KT P6SM SCT040
     FM202200 23015G24KT P6SM SCT050 BKN100
     FM210400 24006KT P6SM BKN120
     FM211000 24005KT P6SM SCT120=



000
FTUS46 KOTX 201740
TAFPUW
TAF
KPUW 201740Z 2018/2118 23015G24KT P6SM SCT040
     FM202200 23015G24KT P6SM SCT050 BKN100
     FM210400 24006KT P6SM BKN120
     FM211000 24005KT P6SM SCT120=



000
FTUS46 KOTX 201740
TAFCOE
TAF
KCOE 201740Z 2018/2118 22012KT P6SM SCT050 BKN060
     FM210100 23013G18KT P6SM SCT050 BKN150
     FM210800 18005KT P6SM SCT150
      AMD LTD TO CLD VIS AND WIND=



000
FTUS46 KOTX 201740
TAFLWS
TAF
KLWS 201740Z 2018/2118 30007KT P6SM SCT080
     FM202100 31012G18KT P6SM SCT080 BKN100
     FM202300 31012G18KT P6SM SCT150
     FM210600 22005KT P6SM SCT120 BKN150=



000
FTUS46 KOTX 201740
TAFEAT
TAF
KEAT 201740Z 2018/2118 30013G19KT P6SM SCT180
     FM210100 29017G25KT P6SM SCT200
     FM211200 31010KT P6SM SKC=



000
FTUS46 KOTX 201740
TAFMWH
TAF
KMWH 201740Z 2018/2118 25009KT P6SM SCT015
     FM202100 23012G20KT P6SM SCT200
     FM210600 27008KT P6SM SKC
     FM211200 25004KT P6SM SKC=



000
FTUS46 KOTX 201740
TAFSFF
TAF
KSFF 201740Z 2018/2118 24010KT 6SM FU SCT050 BKN120
     FM202200 23011G16KT 6SM FU SCT070 BKN180
     FM210600 22004KT P6SM SCT120=



000
FTUS46 KOTX 201740
TAFGEG
TAF
KGEG 201740Z 2018/2118 24013G19KT 6SM FU SCT060 BKN110 BKN150
     FM202300 24012G20KT 6SM FU SCT070 BKN150
     FM210600 20009KT 6SM FU FEW120=



000
FTUS46 KOTX 201344 AAA
TAFLWS
TAF AMD
KLWS 201344Z 2014/2112 21005KT P6SM BKN080 BKN120
     FM201500 32006KT P6SM SCT060 BKN080 BKN120
     FM202100 31012G18KT P6SM BKN080 BKN120
     FM210300 23006KT P6SM SCT100 BKN150=



000
FTUS46 KOTX 201344 AAA
TAFLWS
TAF AMD
KLWS 201344Z 2014/2112 21005KT P6SM BKN080 BKN120
     FM201500 32006KT P6SM SCT060 BKN080 BKN120
     FM202100 31012G18KT P6SM BKN080 BKN120
     FM210300 23006KT P6SM SCT100 BKN150=



000
FTUS46 KOTX 201343 AAA
TAFPUW
TAF AMD
KPUW 201343Z 2014/2112 25005KT P6SM BKN070 BKN120
     FM201700 26012G20KT P6SM BKN070 BKN120
     FM210200 24005KT P6SM BKN100=



000
FTUS46 KOTX 201343 AAA
TAFPUW
TAF AMD
KPUW 201343Z 2014/2112 25005KT P6SM BKN070 BKN120
     FM201700 26012G20KT P6SM BKN070 BKN120
     FM210200 24005KT P6SM BKN100=



000
FTUS46 KOTX 201342 AAA
TAFGEG
TAF AMD
KGEG 201342Z 2014/2112 20010KT 6SM FU BKN070 BKN120
     FM201900 24012G20KT 6SM FU BKN070 BKN150
     FM210300 23007KT P6SM SCT120=



000
FTUS46 KOTX 201342 AAA
TAFSFF
TAF AMD
KSFF 201342Z 2014/2112 20006KT 6SM FU BKN070 BKN120
     FM202000 23011G16KT 6SM FU BKN070 BKN150
     FM210300 26004KT P6SM SCT120=



000
FTUS46 KOTX 201342 AAA
TAFCOE
TAF AMD
KCOE 201342Z 2014/2112 21008KT 6SM FU BKN070 BKN120
     FM202000 24010G18KT 6SM FU BKN070 BKN120
     FM210300 10004KT P6SM SCT120
      AMD LTD TO CLD VIS AND WIND=



000
FTUS46 KOTX 201342 AAA
TAFSFF
TAF AMD
KSFF 201342Z 2014/2112 20006KT 6SM FU BKN070 BKN120
     FM202000 23011G16KT 6SM FU BKN070 BKN150
     FM210300 26004KT P6SM SCT120=



000
FTUS46 KOTX 201342 AAA
TAFCOE
TAF AMD
KCOE 201342Z 2014/2112 21008KT 6SM FU BKN070 BKN120
     FM202000 24010G18KT 6SM FU BKN070 BKN120
     FM210300 10004KT P6SM SCT120
      AMD LTD TO CLD VIS AND WIND=



000
FTUS46 KOTX 201342 AAA
TAFGEG
TAF AMD
KGEG 201342Z 2014/2112 20010KT 6SM FU BKN070 BKN120
     FM201900 24012G20KT 6SM FU BKN070 BKN150
     FM210300 23007KT P6SM SCT120=



000
FTUS46 KOTX 201120
TAFCOE
TAF
KCOE 201120Z 2012/2112 21008KT 6SM FU BKN120
     FM202000 24010G18KT 6SM FU FEW050 BKN080 BKN120
     FM210300 10004KT P6SM SCT120
      AMD LTD TO CLD VIS AND WIND=



000
FTUS46 KOTX 201120
TAFSFF
TAF
KSFF 201120Z 2012/2112 22008KT 6SM FU BKN120
     FM202000 23011G16KT 6SM FU FEW050 SCT080 BKN150
     FM210300 26004KT P6SM SCT120=



000
FTUS46 KOTX 201120
TAFEAT
TAF
KEAT 201120Z 2012/2112 30011KT 6SM FU BKN120
     FM201800 30007KT 6SM FU FEW080 BKN150
     FM202300 29012G20KT 6SM FU SCT150=



000
FTUS46 KOTX 201120
TAFMWH
TAF
KMWH 201120Z 2012/2112 23005KT 6SM FU BKN150
     FM201900 24012G18KT 6SM FU FEW080 SCT120
     FM210300 27011KT P6SM SCT150=



000
FTUS46 KOTX 201120
TAFPUW
TAF
KPUW 201120Z 2012/2112 25008KT P6SM BKN100
     FM201700 26012G20KT P6SM SCT050 BKN070 BKN120
     FM210200 24005KT P6SM BKN100=



000
FTUS46 KOTX 201120
TAFLWS
TAF
KLWS 201120Z 2012/2112 20005KT P6SM SCT100
     FM201500 32006KT P6SM SCT060 BKN100
     FM202100 31012G18KT P6SM SCT060 BKN120
     FM210300 23006KT P6SM SCT100 BKN150=



000
FTUS46 KOTX 201120
TAFGEG
TAF
KGEG 201120Z 2012/2112 21013KT 6SM FU BKN120
     FM201900 24012G20KT 6SM FU FEW050 SCT080 BKN150
     FM210300 23007KT P6SM SCT120=



000
FTUS46 KOTX 201120
TAFSFF
TAF
KSFF 201120Z 2012/2112 22008KT 6SM FU BKN120
     FM202000 23011G16KT 6SM FU FEW050 SCT080 BKN150
     FM210300 26004KT P6SM SCT120=



000
FTUS46 KOTX 201120
TAFEAT
TAF
KEAT 201120Z 2012/2112 30011KT 6SM FU BKN120
     FM201800 30007KT 6SM FU FEW080 BKN150
     FM202300 29012G20KT 6SM FU SCT150=



000
FTUS46 KOTX 201120
TAFGEG
TAF
KGEG 201120Z 2012/2112 21013KT 6SM FU BKN120
     FM201900 24012G20KT 6SM FU FEW050 SCT080 BKN150
     FM210300 23007KT P6SM SCT120=



000
FTUS46 KOTX 201120
TAFLWS
TAF
KLWS 201120Z 2012/2112 20005KT P6SM SCT100
     FM201500 32006KT P6SM SCT060 BKN100
     FM202100 31012G18KT P6SM SCT060 BKN120
     FM210300 23006KT P6SM SCT100 BKN150=



000
FTUS46 KOTX 201120
TAFMWH
TAF
KMWH 201120Z 2012/2112 23005KT 6SM FU BKN150
     FM201900 24012G18KT 6SM FU FEW080 SCT120
     FM210300 27011KT P6SM SCT150=



000
FTUS46 KOTX 201120
TAFCOE
TAF
KCOE 201120Z 2012/2112 21008KT 6SM FU BKN120
     FM202000 24010G18KT 6SM FU FEW050 BKN080 BKN120
     FM210300 10004KT P6SM SCT120
      AMD LTD TO CLD VIS AND WIND=



000
FTUS46 KOTX 201120
TAFPUW
TAF
KPUW 201120Z 2012/2112 25008KT P6SM BKN100
     FM201700 26012G20KT P6SM SCT050 BKN070 BKN120
     FM210200 24005KT P6SM BKN100=



000
FTUS46 KOTX 200520
TAFSFF
TAF
KSFF 200520Z 2006/2106 27012G18KT 6SM FU SCT120
     FM201000 22008KT 6SM FU BKN120
     FM202000 23011G16KT P6SM FEW050 SCT080 BKN150
     FM210300 26004KT P6SM SCT120=



000
FTUS46 KOTX 200520
TAFCOE
TAF
KCOE 200520Z 2006/2106 25011KT P6SM SCT080 SCT150
     FM201200 21008KT P6SM BKN120
     FM202000 24010G18KT P6SM FEW050 BKN080 BKN120
     FM210300 10004KT P6SM SCT120
      AMD LTD TO CLD VIS AND WIND=



000
FTUS46 KOTX 200520
TAFPUW
TAF
KPUW 200520Z 2006/2106 26011KT P6SM SCT100
     FM201000 25008KT P6SM BKN100
     FM201700 26012G20KT P6SM SCT050 BKN070 BKN120
     FM210200 24005KT P6SM BKN100=



000
FTUS46 KOTX 200520
TAFSFF
TAF
KSFF 200520Z 2006/2106 27012G18KT 6SM FU SCT120
     FM201000 22008KT 6SM FU BKN120
     FM202000 23011G16KT P6SM FEW050 SCT080 BKN150
     FM210300 26004KT P6SM SCT120=



000
FTUS46 KOTX 200520
TAFMWH
TAF
KMWH 200520Z 2006/2106 29011KT 6SM FU SCT100 SCT150
     FM201000 23008KT 6SM FU BKN150
     FM201900 24012G18KT 6SM FU FEW080 SCT120
     FM210300 27011KT P6SM SCT150=



000
FTUS46 KOTX 200520
TAFLWS
TAF
KLWS 200520Z 2006/2106 26013KT P6SM SCT150
     FM200900 25008KT P6SM SCT100
     FM201500 32006KT P6SM SCT060 BKN100
     FM202100 31012G18KT P6SM SCT060 BKN120
     FM210300 23006KT P6SM SCT100 BKN150=



000
FTUS46 KOTX 200520
TAFGEG
TAF
KGEG 200520Z 2006/2106 26014KT 6SM FU SCT080 SCT120
     FM201200 21013KT 6SM FU BKN120
     FM201900 24012G20KT P6SM FEW050 SCT080 BKN150
     FM210300 23007KT P6SM SCT120=



000
FTUS46 KOTX 200520
TAFPUW
TAF
KPUW 200520Z 2006/2106 26011KT P6SM SCT100
     FM201000 25008KT P6SM BKN100
     FM201700 26012G20KT P6SM SCT050 BKN070 BKN120
     FM210200 24005KT P6SM BKN100=



000
FTUS46 KOTX 200520
TAFLWS
TAF
KLWS 200520Z 2006/2106 26013KT P6SM SCT150
     FM200900 25008KT P6SM SCT100
     FM201500 32006KT P6SM SCT060 BKN100
     FM202100 31012G18KT P6SM SCT060 BKN120
     FM210300 23006KT P6SM SCT100 BKN150=



000
FTUS46 KOTX 200520
TAFCOE
TAF
KCOE 200520Z 2006/2106 25011KT P6SM SCT080 SCT150
     FM201200 21008KT P6SM BKN120
     FM202000 24010G18KT P6SM FEW050 BKN080 BKN120
     FM210300 10004KT P6SM SCT120
      AMD LTD TO CLD VIS AND WIND=



000
FTUS46 KOTX 200520
TAFGEG
TAF
KGEG 200520Z 2006/2106 26014KT 6SM FU SCT080 SCT120
     FM201200 21013KT 6SM FU BKN120
     FM201900 24012G20KT P6SM FEW050 SCT080 BKN150
     FM210300 23007KT P6SM SCT120=



000
FTUS46 KOTX 200520
TAFEAT
TAF
KEAT 200520Z 2006/2106 30011KT 6SM FU BKN120
     FM201800 30007KT 6SM FU FEW080 BKN150
     FM202300 29012G20KT 6SM FU SCT150=



000
FTUS46 KOTX 200520
TAFEAT
TAF
KEAT 200520Z 2006/2106 30011KT 6SM FU BKN120
     FM201800 30007KT 6SM FU FEW080 BKN150
     FM202300 29012G20KT 6SM FU SCT150=



000
FTUS46 KOTX 200520
TAFMWH
TAF
KMWH 200520Z 2006/2106 29011KT 6SM FU SCT100 SCT150
     FM201000 23008KT 6SM FU BKN150
     FM201900 24012G18KT 6SM FU FEW080 SCT120
     FM210300 27011KT P6SM SCT150=



000
FTUS46 KOTX 200409 AAA
TAFMWH
TAF AMD
KMWH 200409Z 2004/2024 29012G18KT 6SM FU BKN150
     FM201200 23012KT 6SM FU BKN150
     FM201900 24012G20KT 6SM FU FEW080 SCT150=



000
FTUS46 KOTX 200409 AAA
TAFMWH
TAF AMD
KMWH 200409Z 2004/2024 29012G18KT 6SM FU BKN150
     FM201200 23012KT 6SM FU BKN150
     FM201900 24012G20KT 6SM FU FEW080 SCT150=



000
FTUS46 KOTX 192328
TAFCOE
TAF
KCOE 192328Z 2000/2024 24012G18KT P6SM SCT080 BKN150
     FM200300 23011KT P6SM SCT080 SCT150
     FM201200 21008KT P6SM BKN120
     FM202000 24010G18KT P6SM FEW050 BKN080 BKN120
      AMD LTD TO CLD VIS AND WIND=



000
FTUS46 KOTX 192328
TAFEAT
TAF
KEAT 192328Z 2000/2024 26022G32KT 6SM FU SCT090 BKN150
     FM200400 30015G22KT 6SM FU BKN120
     FM200700 30011KT 5SM FU BKN120
     FM202200 29012G20KT 6SM FU SCT120=



000
FTUS46 KOTX 192328
TAFSFF
TAF
KSFF 192328Z 2000/2024 24018G28KT P6SM SCT080 BKN150
     FM200400 23014KT 6SM FU FEW080 SCT120
     FM201200 22007KT 6SM FU BKN120
     FM202000 23011G18KT P6SM FEW050 SCT080 BKN150=



000
FTUS46 KOTX 192328
TAFLWS
TAF
KLWS 192328Z 2000/2024 29018G25KT P6SM SCT200
     FM200400 28013KT P6SM SCT150
     FM200800 27007KT P6SM SCT060
     FM201500 32006KT P6SM BKN060 BKN150
     FM202100 31012G20KT P6SM SCT060 BKN120=



000
FTUS46 KOTX 192328
TAFGEG
TAF
KGEG 192328Z 2000/2024 24024G35KT P6SM SCT080 BKN150
     FM200400 23016KT 6SM FU SCT080 SCT120
     FM201200 21013KT 6SM FU BKN120
     FM201900 24012G20KT P6SM FEW050 SCT080 BKN150=



000
FTUS46 KOTX 192328
TAFCOE
TAF
KCOE 192328Z 2000/2024 24012G18KT P6SM SCT080 BKN150
     FM200300 23011KT P6SM SCT080 SCT150
     FM201200 21008KT P6SM BKN120
     FM202000 24010G18KT P6SM FEW050 BKN080 BKN120
      AMD LTD TO CLD VIS AND WIND=



000
FTUS46 KOTX 192328
TAFSFF
TAF
KSFF 192328Z 2000/2024 24018G28KT P6SM SCT080 BKN150
     FM200400 23014KT 6SM FU FEW080 SCT120
     FM201200 22007KT 6SM FU BKN120
     FM202000 23011G18KT P6SM FEW050 SCT080 BKN150=



000
FTUS46 KOTX 192328
TAFMWH
TAF
KMWH 192328Z 2000/2024 25022G30KT 6SM FU FEW080 SCT150
     FM200600 29013G20KT 6SM FU BKN150
     FM201200 23012KT 6SM FU BKN150
     FM201900 24012G20KT 6SM FU FEW080 SCT150=



000
FTUS46 KOTX 192328
TAFMWH
TAF
KMWH 192328Z 2000/2024 25022G30KT 6SM FU FEW080 SCT150
     FM200600 29013G20KT 6SM FU BKN150
     FM201200 23012KT 6SM FU BKN150
     FM201900 24012G20KT 6SM FU FEW080 SCT150=



000
FTUS46 KOTX 192328
TAFGEG
TAF
KGEG 192328Z 2000/2024 24024G35KT P6SM SCT080 BKN150
     FM200400 23016KT 6SM FU SCT080 SCT120
     FM201200 21013KT 6SM FU BKN120
     FM201900 24012G20KT P6SM FEW050 SCT080 BKN150=



000
FTUS46 KOTX 192328
TAFPUW
TAF
KPUW 192328Z 2000/2024 26020G28KT P6SM SCT200
     FM200300 25014KT P6SM SCT070
     FM201000 25009KT P6SM BKN060
     FM201700 26012G20KT P6SM SCT050 BKN070 BKN120=



000
FTUS46 KOTX 192328
TAFPUW
TAF
KPUW 192328Z 2000/2024 26020G28KT P6SM SCT200
     FM200300 25014KT P6SM SCT070
     FM201000 25009KT P6SM BKN060
     FM201700 26012G20KT P6SM SCT050 BKN070 BKN120=



000
FTUS46 KOTX 192328
TAFEAT
TAF
KEAT 192328Z 2000/2024 26022G32KT 6SM FU SCT090 BKN150
     FM200400 30015G22KT 6SM FU BKN120
     FM200700 30011KT 5SM FU BKN120
     FM202200 29012G20KT 6SM FU SCT120=



000
FTUS46 KOTX 192328
TAFLWS
TAF
KLWS 192328Z 2000/2024 29018G25KT P6SM SCT200
     FM200400 28013KT P6SM SCT150
     FM200800 27007KT P6SM SCT060
     FM201500 32006KT P6SM BKN060 BKN150
     FM202100 31012G20KT P6SM SCT060 BKN120=



000
FTUS46 KOTX 192002 AAA
TAFSFF
TAF AMD
KSFF 192002Z 1920/2018 21015G25KT 6SM FU SCT070
     FM192100 24018G28KT 6SM FU SCT050 BKN150
     FM200400 23014KT 6SM FU FEW050 SCT120
     FM201200 22007KT 6SM FU BKN120=



000
FTUS46 KOTX 191743 CCA
TAFEAT
TAF COR
KEAT 191743Z 1918/2018 31010KT 6SM FU SCT200
     FM192200 30022G32KT 5SM FU BKN150
     FM200400 30015G22KT 6SM FU BKN120
     FM200700 30011KT 6SM FU BKN120=



000
FTUS46 KOTX 191743 CCA
TAFEAT
TAF COR
KEAT 191743Z 1918/2018 31010KT 6SM FU SCT200
     FM192200 30022G32KT 5SM FU BKN150
     FM200400 30015G22KT 6SM FU BKN120
     FM200700 30011KT 6SM FU BKN120=



000
FTUS46 KOTX 191739
TAFMWH
TAF
KMWH 191739Z 1918/2018 24016G24KT 6SM FU FEW200
     FM192200 28022G30KT 6SM FU SCT150
     FM200700 29013G20KT 6SM FU BKN150
     FM201200 23012KT 6SM FU BKN150=



000
FTUS46 KOTX 191739
TAFLWS
TAF
KLWS 191739Z 1918/2018 VRB03KT P6SM SKC
     FM192200 31018G25KT P6SM SCT200
     FM200400 28013KT P6SM SCT150
     FM200800 27009KT P6SM BKN060=



000
FTUS46 KOTX 191739
TAFPUW
TAF
KPUW 191739Z 1918/2018 23016G20KT P6SM SKC
     FM192300 26020G28KT P6SM SCT200
     FM200300 25017KT P6SM SCT070
     FM201000 25009KT P6SM BKN060=



000
FTUS46 KOTX 191739
TAFCOE
TAF
KCOE 191739Z 1918/2018 21010KT P6SM FEW050
     FM192100 24018G28KT P6SM SCT060 BKN120
     FM200300 23013KT P6SM SCT050 SCT120
     FM201200 21009KT P6SM BKN120
      AMD LTD TO CLD VIS AND WIND=



000
FTUS46 KOTX 191739
TAFEAT
TAF
KEAT 191739Z 1918/2018 31010KT P6SM SKC
     FM192100 30022G32KT 5SM FU SCT050 BKN150
     FM200400 30015G22KT 6SM FU BKN120
     FM200700 29008KT P6SM BKN120=



000
FTUS46 KOTX 191739
TAFSFF
TAF
KSFF 191739Z 1918/2018 21012KT 6SM FU FEW050
     FM192100 24018G28KT 6SM FU SCT050 BKN150
     FM200400 23014KT 6SM FU FEW050 SCT120
     FM201200 22007KT 6SM FU BKN120=



000
FTUS46 KOTX 191739
TAFGEG
TAF
KGEG 191739Z 1918/2018 22018KT 6SM FU FEW040 SCT100 BKN200
     FM192100 23024G35KT 6SM FU SCT050 BKN080 BKN150
     FM200400 25016KT 6SM FU SCT050 SCT120
     FM201200 21013KT 6SM FU BKN120=



000
FTUS46 KOTX 191739
TAFGEG
TAF
KGEG 191739Z 1918/2018 22018KT 6SM FU FEW040 SCT100 BKN200
     FM192100 23024G35KT 6SM FU SCT050 BKN080 BKN150
     FM200400 25016KT 6SM FU SCT050 SCT120
     FM201200 21013KT 6SM FU BKN120=



000
FTUS46 KOTX 191739
TAFLWS
TAF
KLWS 191739Z 1918/2018 VRB03KT P6SM SKC
     FM192200 31018G25KT P6SM SCT200
     FM200400 28013KT P6SM SCT150
     FM200800 27009KT P6SM BKN060=



000
FTUS46 KOTX 191739
TAFSFF
TAF
KSFF 191739Z 1918/2018 21012KT 6SM FU FEW050
     FM192100 24018G28KT 6SM FU SCT050 BKN150
     FM200400 23014KT 6SM FU FEW050 SCT120
     FM201200 22007KT 6SM FU BKN120=



000
FTUS46 KOTX 191739
TAFCOE
TAF
KCOE 191739Z 1918/2018 21010KT P6SM FEW050
     FM192100 24018G28KT P6SM SCT060 BKN120
     FM200300 23013KT P6SM SCT050 SCT120
     FM201200 21009KT P6SM BKN120
      AMD LTD TO CLD VIS AND WIND=



000
FTUS46 KOTX 191739
TAFPUW
TAF
KPUW 191739Z 1918/2018 23016G20KT P6SM SKC
     FM192300 26020G28KT P6SM SCT200
     FM200300 25017KT P6SM SCT070
     FM201000 25009KT P6SM BKN060=



000
FTUS46 KOTX 191739
TAFMWH
TAF
KMWH 191739Z 1918/2018 24016G24KT 6SM FU FEW200
     FM192200 28022G30KT 6SM FU SCT150
     FM200700 29013G20KT 6SM FU BKN150
     FM201200 23012KT 6SM FU BKN150=



000
FTUS46 KOTX 191739
TAFEAT
TAF
KEAT 191739Z 1918/2018 31010KT P6SM SKC
     FM192100 30022G32KT 5SM FU SCT050 BKN150
     FM200400 30015G22KT 6SM FU BKN120
     FM200700 29008KT P6SM BKN120=



000
FTUS46 KOTX 191132
TAFPUW
TAF
KPUW 191132Z 1912/2012 25009KT 6SM FU FEW050 SCT100 SCT200
     FM191600 25014KT 6SM FU BKN200
     FM191900 26016G20KT P6SM BKN200
     FM192300 26019G26KT P6SM BKN080
     FM200300 25014KT P6SM BKN070
     FM200600 25010KT P6SM BKN060=



000
FTUS46 KOTX 191132
TAFCOE
TAF
KCOE 191132Z 1912/2012 18011KT P6SM SCT050 BKN150
     FM191800 21013G18KT P6SM BKN060 BKN150
     FM192100 24018G30KT P6SM BKN060 BKN150
     FM200300 23013KT P6SM SCT050 SCT120
     FM200700 21009KT P6SM BKN120
      AMD LTD TO CLD VIS AND WIND=



000
FTUS46 KOTX 191132
TAFLWS
TAF
KLWS 191132Z 1912/2012 15005KT P6SM FEW050 SCT100 BKN200
     FM191900 30011KT P6SM BKN200
     FM192200 31015G22KT P6SM BKN090
     FM200400 28011KT P6SM BKN080
     FM200700 27006KT P6SM BKN070=



000
FTUS46 KOTX 191132
TAFSFF
TAF
KSFF 191132Z 1912/2012 21008KT 6SM FU FEW030 SCT080 BKN150
     FM191700 22011G17KT 6SM FU SCT050 BKN080 BKN150
     FM192100 24018G30KT 6SM FU SCT050 BKN080 BKN150
     FM200400 23014KT 6SM FU SCT050 SCT120
     FM200900 21008KT 6SM FU BKN120=



000
FTUS46 KOTX 191132
TAFEAT
TAF
KEAT 191132Z 1912/2012 30010KT P6SM BKN150
     FM191600 30013G21KT P6SM SCT050 BKN150
     FM192100 30022G32KT 5SM FU SCT050 BKN150
     FM200400 30015G22KT 6SM FU BKN120
     FM200700 29008KT P6SM BKN120=



000
FTUS46 KOTX 191132
TAFMWH
TAF
KMWH 191132Z 1912/2012 26013KT 6SM FU SCT100 BKN200
     FM191700 24016G21KT 6SM FU FEW100 BKN150
     FM192100 28020G29KT 6SM FU FEW070 BKN200
     FM200400 29013G20KT 6SM FU BKN150
     FM200700 23012KT 6SM FU BKN150=



000
FTUS46 KOTX 191132
TAFGEG
TAF
KGEG 191132Z 1912/2012 19011KT 6SM FU FEW030 SCT070 BKN150
     FM191700 21012G18KT 6SM FU SCT050 BKN080 BKN150
     FM192100 23020G30KT 6SM FU SCT050 BKN080 BKN150
     FM200400 24016KT 6SM FU SCT050 SCT120
     FM200900 21013KT 6SM FU BKN120=



000
FTUS46 KOTX 191132
TAFCOE
TAF
KCOE 191132Z 1912/2012 18011KT P6SM SCT050 BKN150
     FM191800 21013G18KT P6SM BKN060 BKN150
     FM192100 24018G30KT P6SM BKN060 BKN150
     FM200300 23013KT P6SM SCT050 SCT120
     FM200700 21009KT P6SM BKN120
      AMD LTD TO CLD VIS AND WIND=



000
FTUS46 KOTX 191132
TAFLWS
TAF
KLWS 191132Z 1912/2012 15005KT P6SM FEW050 SCT100 BKN200
     FM191900 30011KT P6SM BKN200
     FM192200 31015G22KT P6SM BKN090
     FM200400 28011KT P6SM BKN080
     FM200700 27006KT P6SM BKN070=



000
FTUS46 KOTX 191132
TAFGEG
TAF
KGEG 191132Z 1912/2012 19011KT 6SM FU FEW030 SCT070 BKN150
     FM191700 21012G18KT 6SM FU SCT050 BKN080 BKN150
     FM192100 23020G30KT 6SM FU SCT050 BKN080 BKN150
     FM200400 24016KT 6SM FU SCT050 SCT120
     FM200900 21013KT 6SM FU BKN120=



000
FTUS46 KOTX 191132
TAFMWH
TAF
KMWH 191132Z 1912/2012 26013KT 6SM FU SCT100 BKN200
     FM191700 24016G21KT 6SM FU FEW100 BKN150
     FM192100 28020G29KT 6SM FU FEW070 BKN200
     FM200400 29013G20KT 6SM FU BKN150
     FM200700 23012KT 6SM FU BKN150=



000
FTUS46 KOTX 191132
TAFSFF
TAF
KSFF 191132Z 1912/2012 21008KT 6SM FU FEW030 SCT080 BKN150
     FM191700 22011G17KT 6SM FU SCT050 BKN080 BKN150
     FM192100 24018G30KT 6SM FU SCT050 BKN080 BKN150
     FM200400 23014KT 6SM FU SCT050 SCT120
     FM200900 21008KT 6SM FU BKN120=



000
FTUS46 KOTX 191132
TAFPUW
TAF
KPUW 191132Z 1912/2012 25009KT 6SM FU FEW050 SCT100 SCT200
     FM191600 25014KT 6SM FU BKN200
     FM191900 26016G20KT P6SM BKN200
     FM192300 26019G26KT P6SM BKN080
     FM200300 25014KT P6SM BKN070
     FM200600 25010KT P6SM BKN060=



000
FTUS46 KOTX 191132
TAFEAT
TAF
KEAT 191132Z 1912/2012 30010KT P6SM BKN150
     FM191600 30013G21KT P6SM SCT050 BKN150
     FM192100 30022G32KT 5SM FU SCT050 BKN150
     FM200400 30015G22KT 6SM FU BKN120
     FM200700 29008KT P6SM BKN120=



    US Dept of Commerce
    National Oceanic and Atmospheric Administration
    National Weather Service
    1325 East West Highway
    Silver Spring, MD 20910
    Page Author: NWS Internet Services Team
Disclaimer
Information Quality
Credits
Glossary
Privacy Policy
Freedom of Information Act (FOIA)
About Us
Career Opportunities